Time;durP1;ratioP1;P1;durP2;ratioP2;P2;SDS_P1;SDS_P2;PMS_P1;PMS_P2;Temp;Humidity;BMP_temperature;BMP_pressure;BME280_temperature;BME280_humidity;BME280_pressure;Samples;Min_cycle;Max_cycle;Signal;HPM_P1;HPM_P2
2023/12/18 00:00:22;;;;;;;21.13;10.57;;;7.30;99.90;;;;;;6178185;23;20551;-34
2023/12/18 00:02:48;;;;;;;23.88;10.82;;;7.30;99.90;;;;;;6177493;23;20417;-34
2023/12/18 00:05:13;;;;;;;19.50;10.18;;;7.30;99.90;;;;;;6177548;23;20028;-34
2023/12/18 00:07:39;;;;;;;21.05;10.18;;;7.30;99.90;;;;;;6177281;23;20023;-34
2023/12/18 00:10:05;;;;;;;18.38;10.30;;;7.30;99.90;;;;;;6177777;23;20016;-33
2023/12/18 00:12:31;;;;;;;19.65;10.50;;;7.30;99.90;;;;;;6177685;23;20044;-33
2023/12/18 00:14:56;;;;;;;27.45;10.52;;;7.30;99.90;;;;;;6176974;23;20472;-33
2023/12/18 00:17:22;;;;;;;20.08;10.48;;;7.30;99.90;;;;;;6178378;23;20029;-34
2023/12/18 00:19:47;;;;;;;23.05;10.65;;;7.30;99.90;;;;;;6178079;23;20034;-34
2023/12/18 00:22:14;;;;;;;21.92;10.65;;;7.40;99.90;;;;;;6178965;23;20024;-34
2023/12/18 00:24:39;;;;;;;18.30;9.25;;;7.40;99.90;;;;;;6177852;23;20520;-34
2023/12/18 00:27:05;;;;;;;19.52;10.13;;;7.40;99.90;;;;;;6177655;23;20017;-34
2023/12/18 00:29:30;;;;;;;19.23;10.40;;;7.40;99.90;;;;;;6176619;23;20025;-34
2023/12/18 00:31:56;;;;;;;24.70;11.02;;;7.40;99.90;;;;;;6177634;23;20025;-34
2023/12/18 00:34:22;;;;;;;22.45;10.27;;;7.40;99.90;;;;;;6178613;23;20031;-34
2023/12/18 00:36:48;;;;;;;21.58;10.20;;;7.40;99.90;;;;;;6178028;23;20017;-34
2023/12/18 00:39:15;;;;;;;22.30;9.85;;;7.40;99.90;;;;;;6180375;23;20040;-33
2023/12/18 00:41:41;;;;;;;19.15;10.00;;;7.40;99.90;;;;;;6175844;23;20035;-33
2023/12/18 00:44:07;;;;;;;21.20;9.95;;;7.40;99.90;;;;;;6178569;23;20029;-33
2023/12/18 00:46:33;;;;;;;18.48;9.90;;;7.40;99.90;;;;;;6177453;23;20028;-33
2023/12/18 00:48:58;;;;;;;23.40;10.30;;;7.40;99.90;;;;;;6178024;23;20088;-33
2023/12/18 00:51:24;;;;;;;18.48;9.60;;;7.40;99.90;;;;;;6177764;23;20025;-33
2023/12/18 00:53:50;;;;;;;21.25;9.55;;;7.40;99.90;;;;;;6176786;23;20507;-33
2023/12/18 00:56:15;;;;;;;15.32;9.07;;;7.40;99.90;;;;;;6178235;23;20055;-33
2023/12/18 00:58:41;;;;;;;22.45;10.50;;;7.40;99.90;;;;;;6177320;23;20440;-33
2023/12/18 01:01:07;;;;;;;23.08;10.25;;;7.40;99.90;;;;;;6177076;23;20025;-34
2023/12/18 01:03:32;;;;;;;22.10;9.68;;;7.40;99.90;;;;;;6177672;23;20044;-34
2023/12/18 01:05:58;;;;;;;18.48;9.25;;;7.40;99.90;;;;;;6178555;23;20052;-35
2023/12/18 01:08:23;;;;;;;19.67;9.90;;;7.40;99.90;;;;;;6178007;23;20041;-33
2023/12/18 01:10:49;;;;;;;20.00;10.43;;;7.40;99.90;;;;;;6151212;23;20389;-33
2023/12/18 01:13:15;;;;;;;20.52;9.93;;;7.40;99.90;;;;;;6177626;23;20076;-33
2023/12/18 01:15:40;;;;;;;19.85;10.40;;;7.40;99.90;;;;;;6176525;23;20365;-33
2023/12/18 01:18:06;;;;;;;19.33;10.50;;;7.40;99.90;;;;;;6177731;23;20053;-35
2023/12/18 01:20:32;;;;;;;17.38;10.00;;;7.40;99.90;;;;;;6177583;23;20398;-33
2023/12/18 01:22:58;;;;;;;19.73;9.90;;;7.40;99.90;;;;;;6179007;23;20039;-33
2023/12/18 01:25:23;;;;;;;20.80;10.95;;;7.40;99.90;;;;;;6177917;23;20041;-34
2023/12/18 01:27:49;;;;;;;21.25;10.90;;;7.40;99.90;;;;;;6177735;23;20041;-35
2023/12/18 01:30:15;;;;;;;17.40;10.13;;;7.40;99.90;;;;;;6178499;23;20028;-34
2023/12/18 01:32:42;;;;;;;19.92;9.55;;;7.40;99.90;;;;;;6177719;23;20032;-34
2023/12/18 01:35:08;;;;;;;21.65;11.02;;;7.50;99.90;;;;;;6179914;23;20025;-35
2023/12/18 01:37:33;;;;;;;23.63;10.88;;;7.40;99.90;;;;;;6180110;23;20364;-35
2023/12/18 01:39:59;;;;;;;23.05;11.38;;;7.40;99.90;;;;;;6178889;23;20025;-35
2023/12/18 01:42:25;;;;;;;21.95;11.27;;;7.40;99.90;;;;;;6181208;23;20412;-34
2023/12/18 01:44:50;;;;;;;22.10;11.68;;;7.40;99.90;;;;;;6179244;23;20084;-33
2023/12/18 01:47:17;;;;;;;22.25;11.48;;;7.40;99.90;;;;;;6179430;23;20024;-34
2023/12/18 01:49:44;;;;;;;23.85;11.13;;;7.40;99.90;;;;;;6179632;23;20090;-36
2023/12/18 01:52:09;;;;;;;21.98;11.18;;;7.40;99.90;;;;;;6181184;23;20013;-35
2023/12/18 01:54:35;;;;;;;23.60;11.93;;;7.40;99.90;;;;;;6179110;23;20017;-34
2023/12/18 01:57:02;;;;;;;25.60;11.93;;;7.40;99.90;;;;;;6151976;23;20092;-34
2023/12/18 01:59:30;;;;;;;23.02;11.57;;;7.40;99.90;;;;;;6180044;23;20017;-35
2023/12/18 02:01:56;;;;;;;20.23;11.25;;;7.40;99.90;;;;;;6179465;23;20048;-35
2023/12/18 02:04:22;;;;;;;20.77;11.50;;;7.40;99.90;;;;;;6179287;23;20013;-35
2023/12/18 02:06:48;;;;;;;17.48;10.65;;;7.40;99.90;;;;;;6177024;23;20016;-35
2023/12/18 02:09:15;;;;;;;23.65;10.65;;;7.50;99.90;;;;;;6178136;23;20400;-34
2023/12/18 02:11:45;;;;;;;23.30;11.73;;;7.50;99.90;;;;;;6150679;23;20017;-33
2023/12/18 02:14:11;;;;;;;25.20;11.25;;;7.50;99.90;;;;;;6178907;23;20020;-34
2023/12/18 02:16:37;;;;;;;19.50;11.18;;;7.50;99.90;;;;;;6175974;23;20087;-35
2023/12/18 02:19:03;;;;;;;19.10;10.80;;;7.50;99.90;;;;;;6179549;23;20468;-35
2023/12/18 02:21:29;;;;;;;21.58;11.60;;;7.50;99.90;;;;;;6179729;23;20021;-34
2023/12/18 02:23:54;;;;;;;20.30;9.77;;;7.50;99.90;;;;;;6178846;23;20032;-34
2023/12/18 02:26:21;;;;;;;19.08;10.13;;;7.50;99.90;;;;;;6178678;23;20028;-34
2023/12/18 02:28:47;;;;;;;20.40;11.07;;;7.50;99.90;;;;;;6152453;23;20025;-34
2023/12/18 02:31:13;;;;;;;20.30;10.40;;;7.50;99.90;;;;;;6179685;23;20020;-34
2023/12/18 02:33:40;;;;;;;18.77;10.75;;;7.50;99.90;;;;;;6178968;23;20075;-34
2023/12/18 02:36:07;;;;;;;22.10;10.77;;;7.50;99.90;;;;;;6160679;23;20409;-36
2023/12/18 02:38:33;;;;;;;19.40;10.70;;;7.50;99.90;;;;;;6150586;23;20413;-34
2023/12/18 02:40:59;;;;;;;20.80;11.10;;;7.50;99.90;;;;;;6147762;23;20354;-34
2023/12/18 02:43:25;;;;;;;26.70;11.75;;;7.50;99.90;;;;;;6149712;23;20164;-34
2023/12/18 02:45:51;;;;;;;19.95;10.75;;;7.50;99.90;;;;;;6122491;23;20028;-35
2023/12/18 02:48:16;;;;;;;21.95;11.80;;;7.50;99.90;;;;;;6149892;23;20032;-35
2023/12/18 02:50:42;;;;;;;22.95;10.85;;;7.50;99.90;;;;;;6149827;23;20093;-35
2023/12/18 02:53:07;;;;;;;21.38;10.35;;;7.50;99.90;;;;;;6148643;23;20024;-35
2023/12/18 02:55:33;;;;;;;23.92;11.13;;;7.50;99.90;;;;;;6149059;23;20496;-34
2023/12/18 02:58:00;;;;;;;23.52;11.20;;;7.60;99.90;;;;;;6148686;23;20022;-34
2023/12/18 03:00:25;;;;;;;19.02;10.98;;;7.60;99.90;;;;;;6149128;23;20465;-34
2023/12/18 03:02:51;;;;;;;21.73;10.82;;;7.60;99.90;;;;;;6146330;23;20025;-34
2023/12/18 03:05:17;;;;;;;18.77;9.57;;;7.50;99.90;;;;;;6147762;23;20083;-34
2023/12/18 03:07:42;;;;;;;18.80;10.15;;;7.60;99.90;;;;;;6096857;23;20457;-34
2023/12/18 03:10:08;;;;;;;20.63;9.77;;;7.60;99.90;;;;;;6146024;23;20412;-34
2023/12/18 03:12:34;;;;;;;21.63;10.05;;;7.50;99.90;;;;;;6121599;23;20033;-35
2023/12/18 03:15:00;;;;;;;19.40;10.52;;;7.50;99.90;;;;;;6148220;23;20017;-34
2023/12/18 03:17:25;;;;;;;18.30;9.48;;;7.50;99.90;;;;;;6147541;23;20358;-34
2023/12/18 03:19:51;;;;;;;18.73;10.18;;;7.50;99.90;;;;;;6146642;23;20025;-34
2023/12/18 03:22:17;;;;;;;20.42;10.35;;;7.50;99.90;;;;;;6150233;23;20095;-35
2023/12/18 03:24:42;;;;;;;19.95;10.40;;;7.50;99.90;;;;;;6121632;23;20108;-34
2023/12/18 03:27:09;;;;;;;19.55;10.18;;;7.50;99.90;;;;;;6134317;23;20096;-34
2023/12/18 03:29:35;;;;;;;21.67;10.05;;;7.50;99.90;;;;;;6149463;23;20021;-35
2023/12/18 03:32:00;;;;;;;19.80;10.57;;;7.50;99.90;;;;;;6145956;23;20059;-35
2023/12/18 03:34:26;;;;;;;21.67;9.98;;;7.50;99.90;;;;;;6119885;23;20065;-35
2023/12/18 03:36:52;;;;;;;21.00;9.88;;;7.50;99.90;;;;;;6146095;23;20528;-40
2023/12/18 03:39:18;;;;;;;19.08;10.50;;;7.50;99.90;;;;;;6146469;23;20014;-35
2023/12/18 03:41:43;;;;;;;20.60;10.10;;;7.50;99.90;;;;;;6145241;23;20041;-35
2023/12/18 03:44:09;;;;;;;20.00;7.82;;;7.50;99.90;;;;;;6146240;23;20021;-35
2023/12/18 03:46:35;;;;;;;18.75;10.43;;;7.50;99.90;;;;;;6143964;23;20076;-35
2023/12/18 03:49:00;;;;;;;20.48;10.23;;;7.50;99.90;;;;;;6148185;23;20108;-35
2023/12/18 03:51:26;;;;;;;17.10;9.68;;;7.50;99.90;;;;;;6148785;23;20018;-35
2023/12/18 03:53:52;;;;;;;20.80;9.50;;;7.50;99.90;;;;;;6146500;23;20116;-35
2023/12/18 03:56:17;;;;;;;24.35;9.82;;;7.50;99.90;;;;;;6149106;23;20370;-35
2023/12/18 03:58:43;;;;;;;20.80;9.88;;;7.50;99.90;;;;;;6148179;23;20022;-35
2023/12/18 04:01:09;;;;;;;22.77;10.25;;;7.50;99.90;;;;;;6148759;23;20029;-35
2023/12/18 04:03:34;;;;;;;18.63;9.85;;;7.50;99.90;;;;;;6149485;23;20032;-36
2023/12/18 04:06:00;;;;;;;16.75;8.90;;;7.60;99.90;;;;;;6147370;23;20397;-34
2023/12/18 04:08:26;;;;;;;21.02;9.65;;;7.60;99.90;;;;;;6149665;23;20032;-34
2023/12/18 04:10:52;;;;;;;16.85;8.50;;;7.60;99.90;;;;;;6148695;23;20021;-37
2023/12/18 04:13:17;;;;;;;18.95;9.07;;;7.60;99.90;;;;;;6149978;23;20025;-34
2023/12/18 04:15:43;;;;;;;17.50;9.93;;;7.60;99.90;;;;;;6147751;23;20079;-34
2023/12/18 04:18:08;;;;;;;13.80;7.53;;;7.60;99.90;;;;;;6147954;23;20025;-34
2023/12/18 04:20:34;;;;;;;19.13;9.52;;;7.60;99.90;;;;;;6148478;23;20029;-34
2023/12/18 04:23:00;;;;;;;18.75;9.48;;;7.60;99.90;;;;;;6121575;23;20044;-34
2023/12/18 04:25:26;;;;;;;17.30;8.77;;;7.60;99.90;;;;;;6152958;23;20039;-34
2023/12/18 04:27:52;;;;;;;19.23;9.57;;;7.60;99.90;;;;;;6178816;23;20075;-34
2023/12/18 04:30:18;;;;;;;15.13;7.20;;;7.60;99.90;;;;;;6177340;23;20025;-34
2023/12/18 04:32:44;;;;;;;20.33;9.02;;;7.60;99.90;;;;;;6178639;23;20099;-35
2023/12/18 04:35:09;;;;;;;22.50;10.07;;;7.60;99.90;;;;;;6176807;23;20088;-34
2023/12/18 04:37:35;;;;;;;19.92;10.38;;;7.60;99.90;;;;;;6150952;23;20024;-34
2023/12/18 04:40:03;;;;;;;15.32;9.18;;;7.60;99.90;;;;;;6178281;23;20365;-34
2023/12/18 04:42:29;;;;;;;18.90;9.30;;;7.60;99.90;;;;;;6151734;23;20122;-34
2023/12/18 04:44:55;;;;;;;22.17;8.88;;;7.60;99.90;;;;;;6177910;23;20044;-34
2023/12/18 04:47:20;;;;;;;18.65;9.63;;;7.60;99.90;;;;;;6175979;23;20349;-34
2023/12/18 04:49:47;;;;;;;20.85;9.75;;;7.60;99.90;;;;;;6178487;23;20152;-35
2023/12/18 04:52:12;;;;;;;20.08;10.02;;;7.60;99.90;;;;;;6176086;23;20095;-35
2023/12/18 04:54:38;;;;;;;17.25;9.68;;;7.60;99.90;;;;;;6178595;23;20449;-34
2023/12/18 04:57:04;;;;;;;21.85;10.10;;;7.60;99.90;;;;;;6176528;23;20024;-34
2023/12/18 04:59:29;;;;;;;18.38;10.02;;;7.60;99.90;;;;;;6177215;23;20017;-35
2023/12/18 05:01:55;;;;;;;18.63;9.05;;;7.60;99.90;;;;;;6178545;23;20025;-35
2023/12/18 05:04:21;;;;;;;18.35;9.02;;;7.60;99.90;;;;;;6176143;23;20017;-35
2023/12/18 05:06:46;;;;;;;17.92;8.88;;;7.60;99.90;;;;;;6178758;23;20100;-35
2023/12/18 05:09:12;;;;;;;20.60;9.38;;;7.60;99.90;;;;;;6177286;23;20515;-35
2023/12/18 05:11:37;;;;;;;18.48;9.57;;;7.60;99.90;;;;;;6179046;23;20092;-35
2023/12/18 05:14:03;;;;;;;18.88;9.70;;;7.60;99.90;;;;;;6180044;23;20096;-40
2023/12/18 05:16:29;;;;;;;17.70;8.77;;;7.60;99.90;;;;;;6152753;23;20045;-34
2023/12/18 05:18:56;;;;;;;15.73;7.95;;;7.60;99.90;;;;;;6180477;23;20049;-36
2023/12/18 05:21:22;;;;;;;20.05;8.80;;;7.60;99.90;;;;;;6181102;23;20080;-35
2023/12/18 05:23:49;;;;;;;24.08;9.48;;;7.60;99.90;;;;;;6180165;23;20021;-35
2023/12/18 05:26:15;;;;;;;15.68;9.63;;;7.60;99.90;;;;;;6178111;23;20025;-35
2023/12/18 05:28:41;;;;;;;18.05;9.05;;;7.60;99.90;;;;;;6155030;23;20051;-35
2023/12/18 05:31:10;;;;;;;15.55;8.75;;;7.60;99.90;;;;;;6178686;23;20047;-35
2023/12/18 05:33:36;;;;;;;18.33;8.77;;;7.60;99.90;;;;;;6179200;23;20017;-34
2023/12/18 05:36:01;;;;;;;20.13;9.70;;;7.60;99.90;;;;;;6178549;23;20021;-33
2023/12/18 05:38:27;;;;;;;19.10;9.68;;;7.60;99.90;;;;;;6179515;23;20090;-34
2023/12/18 05:40:53;;;;;;;16.13;9.10;;;7.60;99.90;;;;;;6180056;23;20033;-34
2023/12/18 05:43:18;;;;;;;19.75;9.68;;;7.60;99.90;;;;;;6175501;23;20024;-34
2023/12/18 05:45:44;;;;;;;20.55;10.10;;;7.60;99.90;;;;;;6176057;23;20021;-35
2023/12/18 05:48:09;;;;;;;18.27;9.20;;;7.60;99.90;;;;;;6177379;23;20021;-34
2023/12/18 05:50:35;;;;;;;16.75;9.13;;;7.70;99.90;;;;;;6175376;23;20360;-35
2023/12/18 05:53:01;;;;;;;17.33;9.18;;;7.60;99.90;;;;;;6176788;23;20100;-34
2023/12/18 05:55:26;;;;;;;19.42;10.05;;;7.60;99.90;;;;;;6175142;23;20024;-34
2023/12/18 05:57:52;;;;;;;16.42;8.88;;;7.60;99.90;;;;;;6179120;23;20430;-35
2023/12/18 06:00:19;;;;;;;20.60;10.13;;;7.60;99.90;;;;;;6176715;23;20021;-35
2023/12/18 06:02:45;;;;;;;21.17;10.30;;;7.70;99.90;;;;;;6178330;23;20021;-34
2023/12/18 06:05:10;;;;;;;18.30;10.18;;;7.70;99.90;;;;;;6178286;23;20100;-34
2023/12/18 06:07:36;;;;;;;25.17;10.38;;;7.70;99.90;;;;;;6178493;23;20017;-34
2023/12/18 06:10:02;;;;;;;17.92;9.65;;;7.70;99.90;;;;;;6178035;23;20024;-44
2023/12/18 06:12:27;;;;;;;20.13;9.50;;;7.70;99.90;;;;;;6177125;23;20048;-34
2023/12/18 06:14:53;;;;;;;19.15;10.48;;;7.70;99.90;;;;;;6179125;23;20052;-34
2023/12/18 06:17:18;;;;;;;19.40;10.63;;;7.70;99.90;;;;;;6178058;23;20024;-34
2023/12/18 06:19:44;;;;;;;17.05;9.15;;;7.70;99.90;;;;;;6176712;23;20025;-34
2023/12/18 06:22:11;;;;;;;17.40;9.38;;;7.70;99.90;;;;;;6177795;23;20471;-34
2023/12/18 06:24:39;;;;;;;16.92;9.27;;;7.70;99.90;;;;;;6177748;23;20036;-35
2023/12/18 06:27:04;;;;;;;17.40;9.07;;;7.70;99.90;;;;;;6178193;23;20021;-34
2023/12/18 06:29:30;;;;;;;20.77;9.48;;;7.70;99.90;;;;;;6178619;23;20020;-34
2023/12/18 06:31:55;;;;;;;18.30;9.38;;;7.70;99.90;;;;;;6176744;23;20452;-35
2023/12/18 06:34:21;;;;;;;19.08;9.00;;;7.70;99.90;;;;;;6152317;23;20020;-34
2023/12/18 06:36:47;;;;;;;18.77;9.27;;;7.70;99.90;;;;;;6179473;23;20441;-34
2023/12/18 06:39:13;;;;;;;19.05;9.93;;;7.70;99.90;;;;;;6177367;23;20075;-34
2023/12/18 06:41:39;;;;;;;19.02;9.27;;;7.70;99.90;;;;;;6178980;23;20670;-34
2023/12/18 06:44:05;;;;;;;17.58;9.27;;;7.70;99.90;;;;;;6178468;23;20020;-34
2023/12/18 06:46:32;;;;;;;21.67;9.85;;;7.80;99.90;;;;;;6151940;23;20021;-34
2023/12/18 06:48:58;;;;;;;22.75;9.98;;;7.80;99.90;;;;;;6152629;23;20032;-34
2023/12/18 06:51:24;;;;;;;18.60;9.13;;;7.80;99.90;;;;;;6178047;23;20043;-35
2023/12/18 06:53:50;;;;;;;16.75;10.25;;;7.70;99.90;;;;;;6179156;23;20191;-34
2023/12/18 06:56:16;;;;;;;18.90;9.95;;;7.80;99.90;;;;;;6178078;23;20025;-35
2023/12/18 06:58:41;;;;;;;18.00;9.25;;;7.80;99.90;;;;;;6178773;23;20478;-34
2023/12/18 07:01:07;;;;;;;15.20;8.82;;;7.80;99.90;;;;;;6178480;23;20337;-33
2023/12/18 07:03:33;;;;;;;20.80;10.23;;;7.80;99.90;;;;;;6175819;23;20025;-34
2023/12/18 07:05:59;;;;;;;17.95;9.55;;;7.70;99.90;;;;;;6149848;23;20024;-35
2023/12/18 07:08:25;;;;;;;21.52;10.10;;;7.70;99.90;;;;;;6148215;23;20024;-33
2023/12/18 07:10:50;;;;;;;16.63;9.68;;;7.70;99.90;;;;;;6176252;23;20516;-36
2023/12/18 07:13:16;;;;;;;17.08;11.15;;;7.70;99.90;;;;;;6175017;23;20025;-35
2023/12/18 07:15:42;;;;;;;22.65;10.93;;;7.70;99.90;;;;;;6177186;23;20250;-34
2023/12/18 07:18:08;;;;;;;20.00;10.85;;;7.70;99.90;;;;;;6177479;23;20022;-35
2023/12/18 07:20:33;;;;;;;19.27;11.25;;;7.60;99.90;;;;;;6178343;23;20483;-34
2023/12/18 07:22:59;;;;;;;17.80;10.05;;;7.60;99.90;;;;;;6180653;23;20021;-35
2023/12/18 07:25:25;;;;;;;18.67;11.23;;;7.60;99.90;;;;;;6150599;23;20025;-35
2023/12/18 07:27:51;;;;;;;22.23;12.65;;;7.50;99.90;;;;;;6178521;23;20021;-34
2023/12/18 07:30:17;;;;;;;19.45;12.05;;;7.60;99.90;;;;;;6177164;23;20123;-34
2023/12/18 07:32:43;;;;;;;20.50;12.05;;;7.50;99.90;;;;;;6177779;23;20013;-34
2023/12/18 07:35:08;;;;;;;21.48;12.05;;;7.50;99.90;;;;;;6178101;23;20021;-34
2023/12/18 07:37:34;;;;;;;21.30;12.35;;;7.50;99.90;;;;;;6152303;23;20043;-34
2023/12/18 07:40:00;;;;;;;23.67;13.00;;;7.50;99.90;;;;;;6151460;23;20029;-36
2023/12/18 07:42:26;;;;;;;22.20;11.85;;;7.50;99.90;;;;;;6179138;23;20028;-34
2023/12/18 07:44:53;;;;;;;24.08;13.70;;;7.40;99.90;;;;;;6179314;23;20021;-34
2023/12/18 07:47:19;;;;;;;23.05;13.38;;;7.40;99.90;;;;;;6178456;23;20024;-34
2023/12/18 07:49:44;;;;;;;22.65;12.32;;;7.40;99.90;;;;;;6178953;23;20013;-34
2023/12/18 07:52:10;;;;;;;28.42;13.40;;;7.40;99.90;;;;;;6152598;23;20107;-34
2023/12/18 07:54:36;;;;;;;26.63;13.38;;;7.40;99.90;;;;;;6176846;23;20067;-35
2023/12/18 07:57:04;;;;;;;23.45;11.85;;;7.40;99.90;;;;;;6179711;23;20044;-34
2023/12/18 07:59:30;;;;;;;21.02;11.75;;;7.40;99.90;;;;;;6178708;23;20016;-34
2023/12/18 08:01:56;;;;;;;22.05;11.95;;;7.40;99.90;;;;;;6153329;23;20048;-34
2023/12/18 08:04:22;;;;;;;19.92;13.15;;;7.50;99.90;;;;;;6176128;23;20028;-34
2023/12/18 08:06:51;;;;;;;23.92;12.75;;;7.50;99.90;;;;;;6178650;23;20408;-34
2023/12/18 08:09:16;;;;;;;26.40;12.48;;;7.50;99.90;;;;;;6177755;23;20353;-34
2023/12/18 08:11:42;;;;;;;23.13;13.20;;;7.50;99.90;;;;;;6178809;23;20114;-34
2023/12/18 08:14:09;;;;;;;23.67;12.25;;;7.50;99.90;;;;;;6179328;23;20048;-34
2023/12/18 08:16:35;;;;;;;26.70;14.00;;;7.50;99.90;;;;;;6176187;23;20343;-35
2023/12/18 08:19:00;;;;;;;27.42;12.90;;;7.60;99.90;;;;;;6179397;23;20393;-35
2023/12/18 08:21:27;;;;;;;22.25;12.98;;;7.60;99.90;;;;;;6175709;23;20021;-34
2023/12/18 08:23:53;;;;;;;25.33;12.10;;;7.60;99.90;;;;;;6175864;23;20079;-33
2023/12/18 08:26:19;;;;;;;20.80;12.60;;;7.60;99.90;;;;;;6174164;23;20025;-34
2023/12/18 08:28:45;;;;;;;24.25;12.68;;;7.60;99.90;;;;;;6177920;23;20017;-34
2023/12/18 08:31:11;;;;;;;21.40;11.88;;;7.70;99.90;;;;;;6179283;23;20029;-34
2023/12/18 08:33:38;;;;;;;21.50;12.73;;;7.70;99.90;;;;;;6178623;23;20075;-34
2023/12/18 08:36:04;;;;;;;22.52;12.00;;;7.70;99.90;;;;;;6178702;23;20025;-35
2023/12/18 08:38:30;;;;;;;24.63;13.10;;;7.70;99.90;;;;;;6178324;23;20017;-34
2023/12/18 08:40:55;;;;;;;24.55;11.95;;;7.70;99.90;;;;;;6177953;23;20032;-34
2023/12/18 08:43:21;;;;;;;21.38;12.00;;;7.70;99.90;;;;;;6180507;23;20365;-34
2023/12/18 08:45:47;;;;;;;23.02;13.80;;;7.80;99.90;;;;;;6178754;23;20025;-34
2023/12/18 08:48:13;;;;;;;22.58;13.30;;;7.80;99.90;;;;;;6178503;23;20123;-34
2023/12/18 08:50:39;;;;;;;23.17;13.15;;;7.80;99.90;;;;;;6177758;23;20356;-35
2023/12/18 08:53:04;;;;;;;23.65;12.85;;;7.80;99.90;;;;;;6151707;23;20472;-35
2023/12/18 08:55:30;;;;;;;23.30;13.27;;;7.80;99.90;;;;;;6175961;23;20460;-34
2023/12/18 08:57:56;;;;;;;25.27;13.10;;;7.90;99.90;;;;;;6179725;23;20017;-34
2023/12/18 09:00:22;;;;;;;25.95;12.82;;;7.90;99.90;;;;;;6179727;23;20077;-33
2023/12/18 09:02:48;;;;;;;24.95;14.02;;;7.90;99.90;;;;;;6180290;23;20407;-36
2023/12/18 09:05:13;;;;;;;24.90;13.70;;;7.90;99.90;;;;;;6177142;23;20017;-35
2023/12/18 09:07:39;;;;;;;22.65;13.25;;;7.90;99.90;;;;;;6179077;23;20017;-35
2023/12/18 09:10:06;;;;;;;23.10;12.82;;;8.00;99.90;;;;;;6179463;23;20036;-34
2023/12/18 09:12:31;;;;;;;24.30;13.43;;;8.00;99.90;;;;;;6180234;23;20024;-34
2023/12/18 09:14:57;;;;;;;22.83;13.77;;;8.00;99.90;;;;;;6179498;23;20355;-34
2023/12/18 09:17:23;;;;;;;24.90;13.27;;;8.00;99.90;;;;;;6180259;23;20028;-34
2023/12/18 09:19:48;;;;;;;27.10;13.13;;;8.00;99.90;;;;;;6180281;23;20016;-34
2023/12/18 09:22:14;;;;;;;25.10;13.65;;;8.10;99.90;;;;;;6178606;23;20041;-35
2023/12/18 09:24:39;;;;;;;24.42;12.98;;;8.10;99.90;;;;;;6179644;23;20440;-34
2023/12/18 09:27:05;;;;;;;23.65;12.82;;;8.10;99.90;;;;;;6180386;23;20024;-36
2023/12/18 09:29:31;;;;;;;20.33;13.43;;;8.10;99.90;;;;;;6179482;23;20021;-34
2023/12/18 09:31:56;;;;;;;27.13;13.85;;;8.10;99.90;;;;;;6180427;23;20039;-35
2023/12/18 09:34:22;;;;;;;21.70;12.57;;;8.10;99.90;;;;;;6178959;23;20028;-34
2023/12/18 09:36:48;;;;;;;26.77;13.98;;;8.10;99.90;;;;;;6178967;23;20013;-34
2023/12/18 09:39:14;;;;;;;23.25;13.70;;;8.10;99.90;;;;;;6181245;23;20076;-35
2023/12/18 09:41:40;;;;;;;25.60;12.25;;;8.10;99.90;;;;;;6153715;23;20029;-39
2023/12/18 09:44:06;;;;;;;26.58;14.27;;;8.10;99.90;;;;;;6180937;23;20479;-35
2023/12/18 09:46:31;;;;;;;21.80;13.00;;;8.10;99.90;;;;;;6179691;23;20017;-35
2023/12/18 09:48:57;;;;;;;24.70;14.02;;;8.10;99.90;;;;;;6181361;23;20305;-35
2023/12/18 09:51:24;;;;;;;23.83;14.15;;;8.10;99.90;;;;;;6177707;23;20032;-34
2023/12/18 09:53:54;;;;;;;23.77;14.23;;;8.20;99.90;;;;;;6152282;23;20390;-35
2023/12/18 09:56:23;;;;;;;25.65;13.00;;;8.20;99.90;;;;;;6180945;23;20021;-35
2023/12/18 09:58:51;;;;;;;22.58;13.88;;;8.10;99.90;;;;;;6180145;23;20021;-35
2023/12/18 10:01:17;;;;;;;24.20;13.90;;;8.10;99.90;;;;;;6178017;23;20029;-35
2023/12/18 10:03:43;;;;;;;24.55;14.80;;;8.20;99.90;;;;;;6178670;23;20425;-34
2023/12/18 10:06:09;;;;;;;26.58;13.90;;;8.20;99.90;;;;;;6177465;23;20029;-34
2023/12/18 10:08:35;;;;;;;22.40;14.43;;;8.20;99.90;;;;;;6177273;23;20033;-34
2023/12/18 10:11:03;;;;;;;28.02;14.75;;;8.20;99.90;;;;;;6177155;23;20443;-34
2023/12/18 10:13:28;;;;;;;21.50;13.35;;;8.20;99.90;;;;;;6179232;23;20036;-34
2023/12/18 10:15:54;;;;;;;24.73;14.38;;;8.20;99.90;;;;;;6175884;23;20025;-34
2023/12/18 10:18:23;;;;;;;23.50;13.32;;;8.20;99.90;;;;;;6174641;23;20051;-34
2023/12/18 10:20:50;;;;;;;22.83;13.60;;;8.20;99.90;;;;;;6175987;23;20479;-35
2023/12/18 10:23:16;;;;;;;29.85;14.77;;;8.20;99.90;;;;;;6176673;23;20036;-35
2023/12/18 10:25:41;;;;;;;20.65;13.70;;;8.30;99.90;;;;;;6178543;23;20164;-34
2023/12/18 10:28:07;;;;;;;25.42;14.52;;;8.20;99.90;;;;;;6179967;23;20382;-34
2023/12/18 10:30:36;;;;;;;26.48;14.23;;;8.30;99.90;;;;;;6178219;23;20096;-34
2023/12/18 10:33:06;;;;;;;26.75;14.23;;;8.30;99.90;;;;;;6180128;23;20025;-35
2023/12/18 10:35:35;;;;;;;24.95;13.50;;;8.30;99.90;;;;;;6152893;23;20017;-35
2023/12/18 10:38:02;;;;;;;25.30;13.93;;;8.30;99.90;;;;;;6173626;23;20084;-34
2023/12/18 10:40:28;;;;;;;24.73;13.70;;;8.30;99.90;;;;;;6151467;23;20396;-34
2023/12/18 10:43:08;;;;;;;22.05;13.45;;;8.30;99.90;;;;;;6175521;23;20456;-42
2023/12/18 10:45:34;;;;;;;22.40;12.63;;;8.40;99.90;;;;;;6179353;23;20024;-35
2023/12/18 10:48:02;;;;;;;22.17;13.32;;;8.40;99.90;;;;;;6152310;23;20088;-38
2023/12/18 10:50:32;;;;;;;23.45;14.13;;;8.40;99.90;;;;;;6179866;23;20024;-34
2023/12/18 10:53:03;;;;;;;22.10;12.93;;;8.40;99.90;;;;;;6175645;23;20115;-35
2023/12/18 10:55:30;;;;;;;21.30;13.30;;;8.40;99.90;;;;;;6178411;23;20068;-34
2023/12/18 10:57:59;;;;;;;23.25;13.50;;;8.40;99.90;;;;;;6178025;23;20021;-34
2023/12/18 11:00:25;;;;;;;24.58;13.75;;;8.40;99.90;;;;;;6152207;23;20024;-35
2023/12/18 11:02:53;;;;;;;25.27;12.55;;;8.40;99.90;;;;;;6178307;23;20403;-41
2023/12/18 11:05:20;;;;;;;18.95;12.85;;;8.50;99.90;;;;;;6179688;23;20449;-35
2023/12/18 11:07:46;;;;;;;24.17;13.68;;;8.50;99.90;;;;;;6173108;23;20025;-34
2023/12/18 11:10:12;;;;;;;23.27;13.35;;;8.50;99.90;;;;;;6175422;23;20024;-34
2023/12/18 11:12:39;;;;;;;25.40;13.73;;;8.50;99.90;;;;;;6176050;23;20364;-33
2023/12/18 11:15:21;;;;;;;22.40;12.13;;;8.60;99.90;;;;;;6177487;23;20040;-34
2023/12/18 11:18:17;;;;;;;23.45;13.82;;;8.60;99.90;;;;;;6177880;23;20490;-34
2023/12/18 11:20:43;;;;;;;24.13;13.68;;;8.60;99.90;;;;;;6178121;23;20457;-34
2023/12/18 11:23:11;;;;;;;25.25;13.48;;;8.60;99.90;;;;;;6180620;23;20016;-34
2023/12/18 11:25:41;;;;;;;31.30;14.20;;;8.60;99.90;;;;;;6178215;23;20460;-34
2023/12/18 11:28:06;;;;;;;21.65;13.00;;;8.60;99.90;;;;;;6176641;23;20021;-35
2023/12/18 11:30:40;;;;;;;21.60;13.32;;;8.70;99.90;;;;;;6177443;23;20109;-34
2023/12/18 11:33:08;;;;;;;23.40;13.68;;;8.70;99.90;;;;;;6151077;23;20020;-36
2023/12/18 11:35:35;;;;;;;24.50;13.05;;;8.70;99.90;;;;;;6177167;23;20461;-35
2023/12/18 11:38:12;;;;;;;21.17;13.10;;;8.60;99.90;;;;;;6177352;23;20533;-34
2023/12/18 11:40:41;;;;;;;27.90;13.45;;;8.70;99.90;;;;;;6177547;23;20028;-35
2023/12/18 11:43:11;;;;;;;23.98;11.80;;;8.60;99.90;;;;;;6151510;23;20021;-34
2023/12/18 11:45:44;;;;;;;24.38;13.27;;;8.60;99.90;;;;;;6179245;23;20617;-38
2023/12/18 11:48:16;;;;;;;26.60;13.73;;;8.60;99.90;;;;;;6178705;23;20021;-35
2023/12/18 11:50:41;;;;;;;23.42;13.00;;;8.60;99.90;;;;;;6176099;23;20048;-34
2023/12/18 11:53:18;;;;;;;22.05;13.18;;;8.60;99.90;;;;;;6177155;23;20795;-34
2023/12/18 11:55:48;;;;;;;23.70;13.75;;;8.50;99.90;;;;;;6178033;23;20055;-34
2023/12/18 11:58:14;;;;;;;25.48;12.57;;;8.50;99.90;;;;;;6178379;23;20357;-38
2023/12/18 12:00:40;;;;;;;26.13;12.68;;;8.50;99.90;;;;;;6178647;23;20029;-35
2023/12/18 12:03:06;;;;;;;24.42;12.45;;;8.50;99.90;;;;;;6178545;23;20076;-34
2023/12/18 12:05:32;;;;;;;21.45;13.43;;;8.50;99.90;;;;;;6125888;23;20058;-34
2023/12/18 12:07:59;;;;;;;24.10;13.27;;;8.50;99.90;;;;;;6174731;23;20035;-34
2023/12/18 12:10:24;;;;;;;19.73;12.95;;;8.50;99.90;;;;;;6176844;23;20025;-34
2023/12/18 12:12:57;;;;;;;24.48;13.48;;;8.50;99.90;;;;;;6177219;23;20024;-34
2023/12/18 12:15:27;;;;;;;;;;;8.50;99.90;;;;;;6149294;23;20028;-35
2023/12/18 12:18:01;;;;;;;22.45;13.55;;;8.50;99.90;;;;;;6176362;23;19992;-34
2023/12/18 12:20:27;;;;;;;23.13;14.38;;;8.50;99.90;;;;;;6175660;23;20032;-35
2023/12/18 12:22:53;;;;;;;19.88;12.05;;;8.50;99.90;;;;;;6179561;23;20020;-35
2023/12/18 12:25:18;;;;;;;21.15;13.38;;;8.40;99.90;;;;;;6176676;23;20043;-35
2023/12/18 12:27:44;;;;;;;18.48;12.63;;;8.50;99.90;;;;;;6179733;23;20536;-35
2023/12/18 12:30:11;;;;;;;23.52;13.35;;;8.40;99.90;;;;;;6177944;23;20017;-35
2023/12/18 12:32:39;;;;;;;26.63;13.32;;;8.40;99.90;;;;;;6178998;23;20463;-35
2023/12/18 12:35:07;;;;;;;20.42;12.90;;;8.40;99.90;;;;;;6178773;23;20456;-38